CheckWX is a tool to help pilots better visualize weather data.  It is not intended as a substitute for an official pre-flight weather briefing.

11:58:57 UTC

KSBS METAR
Steamboat Springs / Bob Adams Field Airport
Steamboat Springs, Colorado, USA
Current

24 mins ago

KSBS 161135Z AUTO 00000KT 10SM CLR M02/M09 A3032 RMK AO1 T10231089
Observed
Oct-16 @ 11:35 UTC
Visibility
10 SM
Flight Rules
VFR
Cloud Levels
  • Clear skies
Temperature
-2°C / 28°F
Dewpoint
-9°C / 16°F
Humidity
59%
Altimeter
30.32" Hg
Pressure
1026.72 hPa
Previous

44 mins ago

KSBS 161115Z AUTO 00000KT 10SM CLR M02/M09 A3032 RMK AO1 T10171091
Observed
Oct-16 @ 11:15 UTC
Visibility
10 SM
Flight Rules
VFR
Cloud Levels
  • Clear skies
Temperature
-2°C / 28°F
Dewpoint
-9°C / 16°F
Humidity
59%
Altimeter
30.32" Hg
Pressure
1026.72 hPa
Previous

1 hour ago

KSBS 161055Z AUTO 00000KT 10SM CLR M02/M09 A3032 RMK AO1 T10171091
Observed
Oct-16 @ 10:55 UTC
Visibility
10 SM
Flight Rules
VFR
Cloud Levels
  • Clear skies
Temperature
-2°C / 28°F
Dewpoint
-9°C / 16°F
Humidity
59%
Altimeter
30.32" Hg
Pressure
1026.72 hPa